createdAt,value
2022-11-18T00:00:46.982Z,9.68
2022-11-18T00:03:12.982Z,8.63
2022-11-18T00:05:39.015Z,10.01
2022-11-18T00:08:05.051Z,10.02
2022-11-18T00:10:31.079Z,8.60
2022-11-18T00:13:15.488Z,9.44
2022-11-18T00:15:41.811Z,10.04
2022-11-18T00:18:08.158Z,8.82
2022-11-18T00:20:34.741Z,9.73
2022-11-18T00:23:00.768Z,9.67
2022-11-18T00:25:26.942Z,9.80
2022-11-18T00:27:53.632Z,9.75
2022-11-18T00:30:19.759Z,9.93
2022-11-18T00:32:45.827Z,9.85
2022-11-18T00:35:11.830Z,9.66
2022-11-18T00:37:37.846Z,8.79
2022-11-18T00:40:04.347Z,9.30
2022-11-18T00:42:48.802Z,9.47
2022-11-18T00:45:14.828Z,9.84
2022-11-18T00:47:40.873Z,9.80
2022-11-18T00:50:07.315Z,9.87
2022-11-18T00:52:33.380Z,10.00
2022-11-18T00:54:59.399Z,9.81
2022-11-18T00:57:25.409Z,9.72
2022-11-18T00:59:51.434Z,9.60
2022-11-18T01:02:17.464Z,9.61
2022-11-18T01:04:43.503Z,9.78
2022-11-18T01:07:09.684Z,9.86
2022-11-18T01:09:35.800Z,10.00
2022-11-18T01:12:20.441Z,9.76
2022-11-18T01:14:46.530Z,9.42
2022-11-18T01:17:12.568Z,10.00
2022-11-18T01:19:38.692Z,10.00
2022-11-18T01:22:04.716Z,10.07
2022-11-18T01:24:42.149Z,10.10
2022-11-18T01:27:08.178Z,9.77
2022-11-18T01:29:34.207Z,10.07
2022-11-18T01:34:46.365Z,10.09
2022-11-18T01:37:12.405Z,9.59
2022-11-18T01:39:38.422Z,9.90
2022-11-18T01:42:04.528Z,9.91
2022-11-18T01:45:01.645Z,9.71
2022-11-18T01:47:32.354Z,9.45
2022-11-18T01:49:58.813Z,8.56
2022-11-18T01:52:24.969Z,9.93
2022-11-18T01:54:55.473Z,9.79
2022-11-18T01:57:22.416Z,9.71
2022-11-18T01:59:50.149Z,9.84
2022-11-18T02:02:16.181Z,9.81
2022-11-18T02:04:44.864Z,9.62
2022-11-18T02:07:11.164Z,6.01
2022-11-18T02:09:37.797Z,9.71
2022-11-18T02:12:04.490Z,9.35
2022-11-18T02:14:34.374Z,9.70
2022-11-18T02:17:18.695Z,9.75
2022-11-18T02:19:51.922Z,9.63
2022-11-18T02:22:36.571Z,9.90
2022-11-18T02:25:33.592Z,9.89
2022-11-18T02:28:21.395Z,9.87
2022-11-18T02:30:56.492Z,9.86
2022-11-18T02:33:25.492Z,9.75
2022-11-18T02:35:56.624Z,9.69
2022-11-18T02:38:31.045Z,9.85
2022-11-18T02:41:06.043Z,9.90
2022-11-18T02:43:34.200Z,9.97
2022-11-18T02:46:03.538Z,9.91
2022-11-18T02:48:32.182Z,9.95
2022-11-18T02:50:59.256Z,9.98
2022-11-18T02:53:27.928Z,9.98
2022-11-18T02:55:54.628Z,9.97
2022-11-18T02:58:21.685Z,9.93
2022-11-18T03:00:55.151Z,9.87
2022-11-18T03:03:32.805Z,9.92
2022-11-18T03:06:07.874Z,9.89
2022-11-18T03:08:39.826Z,9.89
2022-11-18T03:11:16.474Z,9.92
2022-11-18T03:14:04.785Z,9.95
2022-11-18T03:17:01.436Z,9.98
2022-11-18T03:19:45.686Z,9.95
2022-11-18T03:22:34.041Z,9.85
2022-11-18T03:25:06.836Z,9.90
2022-11-18T03:27:58.764Z,9.56
2022-11-18T03:30:25.667Z,9.87
2022-11-18T03:32:57.170Z,9.89
2022-11-18T03:35:28.943Z,8.49
2022-11-18T03:38:00.913Z,9.93
2022-11-18T03:40:29.048Z,9.92
2022-11-18T03:43:22.203Z,9.87
2022-11-18T03:45:54.415Z,9.90
2022-11-18T03:48:26.896Z,9.94
2022-11-18T03:51:01.026Z,9.93
2022-11-18T03:53:29.228Z,9.94
2022-11-18T03:56:03.000Z,9.90
2022-11-18T03:58:37.803Z,9.87
2022-11-18T04:01:11.084Z,9.50
2022-11-18T04:03:37.319Z,9.88
2022-11-18T04:06:10.128Z,9.45
2022-11-18T04:08:37.811Z,9.73
2022-11-18T04:11:08.086Z,9.70
2022-11-18T04:13:36.101Z,9.55
2022-11-18T04:16:02.228Z,9.77
2022-11-18T04:18:28.302Z,9.74
2022-11-18T04:20:54.328Z,9.75
2022-11-18T04:23:20.367Z,9.80
2022-11-18T04:25:46.415Z,9.79
2022-11-18T04:28:12.568Z,9.79
2022-11-18T04:30:38.666Z,9.81
2022-11-18T04:33:04.751Z,9.85
2022-11-18T04:35:30.765Z,9.81
2022-11-18T04:37:56.789Z,9.82
2022-11-18T04:40:22.839Z,9.80
2022-11-18T04:42:48.862Z,9.85
2022-11-18T04:45:15.048Z,9.86
2022-11-18T04:47:41.196Z,9.84
2022-11-18T04:50:07.631Z,9.44
2022-11-18T04:52:33.920Z,9.58
2022-11-18T04:55:00.025Z,9.64
2022-11-18T04:57:26.467Z,9.73
2022-11-18T04:59:52.577Z,9.91
2022-11-18T05:02:18.723Z,9.48
2022-11-18T05:04:44.847Z,9.94
2022-11-18T05:07:14.297Z,9.95
2022-11-18T05:09:40.410Z,9.96
2022-11-18T05:12:29.589Z,9.92
2022-11-18T05:14:55.614Z,9.89
2022-11-18T05:17:21.629Z,9.87
2022-11-18T05:19:47.746Z,9.92
2022-11-18T05:22:14.799Z,9.59
2022-11-18T05:24:40.881Z,9.90
2022-11-18T05:27:06.940Z,9.87
2022-11-18T05:29:32.972Z,9.92
2022-11-18T05:31:59.030Z,9.53
2022-11-18T05:34:25.055Z,9.92
2022-11-18T05:36:51.164Z,9.92
2022-11-18T05:39:17.566Z,9.89
2022-11-18T05:42:02.237Z,9.85
2022-11-18T05:44:28.258Z,9.81
2022-11-18T05:46:54.543Z,9.87
2022-11-18T05:49:20.738Z,9.89
2022-11-18T05:51:46.919Z,9.80
2022-11-18T05:54:14.151Z,9.91
2022-11-18T05:56:44.085Z,9.90
2022-11-18T05:59:10.361Z,9.89
2022-11-18T06:02:00.106Z,9.83
2022-11-18T06:04:31.735Z,9.82
2022-11-18T06:07:07.626Z,9.68
2022-11-18T06:09:36.932Z,9.55
2022-11-18T06:12:03.625Z,9.45
2022-11-18T06:14:34.961Z,9.56
2022-11-18T06:17:05.062Z,9.70
2022-11-18T06:19:31.549Z,8.64
2022-11-18T06:21:57.785Z,9.80
2022-11-18T06:24:24.240Z,9.79
2022-11-18T06:26:50.581Z,8.46
2022-11-18T06:29:22.932Z,9.79
2022-11-18T06:31:52.140Z,9.79
2022-11-18T06:34:18.320Z,9.80
2022-11-18T06:36:44.338Z,8.53
2022-11-18T06:39:10.389Z,9.81
2022-11-18T06:41:36.402Z,9.73
2022-11-18T06:44:02.463Z,9.75
2022-11-18T06:46:47.185Z,9.37
2022-11-18T06:49:13.256Z,9.81
2022-11-18T06:51:39.611Z,9.48
2022-11-18T06:54:10.411Z,9.63
2022-11-18T06:56:37.265Z,9.90
2022-11-18T06:59:03.984Z,9.92
2022-11-18T07:01:32.134Z,9.92
2022-11-18T07:03:59.245Z,9.93
2022-11-18T07:06:27.172Z,9.90
2022-11-18T07:08:53.287Z,9.88
2022-11-18T07:11:21.964Z,9.89
2022-11-18T07:13:48.147Z,9.94
2022-11-18T07:16:20.755Z,9.55
2022-11-18T07:18:48.180Z,9.84
2022-11-18T07:21:16.473Z,9.89
2022-11-18T07:23:43.042Z,9.96
2022-11-18T07:26:09.507Z,10.00
2022-11-18T07:28:35.681Z,9.52
2022-11-18T07:31:12.560Z,9.95
2022-11-18T07:33:39.892Z,9.56
2022-11-18T07:36:10.908Z,8.89
2022-11-18T07:38:37.284Z,9.23
2022-11-18T07:41:22.842Z,9.41
2022-11-18T07:43:50.040Z,9.06
2022-11-18T07:46:21.476Z,8.94
2022-11-18T07:48:49.496Z,9.38
2022-11-18T07:51:17.169Z,9.33
2022-11-18T07:53:43.408Z,9.40
2022-11-18T07:56:10.076Z,9.58
2022-11-18T07:58:36.462Z,9.61
2022-11-18T08:01:07.763Z,9.32
2022-11-18T08:03:33.897Z,9.46
2022-11-18T08:06:00.820Z,9.64
2022-11-18T08:08:27.263Z,9.22
2022-11-18T08:10:57.312Z,9.23
2022-11-18T08:13:24.283Z,9.25
2022-11-18T08:15:50.760Z,9.17
2022-11-18T08:18:16.939Z,9.25
2022-11-18T08:20:44.528Z,9.38
2022-11-18T08:23:11.726Z,9.47
2022-11-18T08:25:37.927Z,9.16
2022-11-18T08:28:04.197Z,9.61
2022-11-18T08:30:30.350Z,9.45
2022-11-18T08:32:56.455Z,9.66
2022-11-18T08:35:22.499Z,9.84
2022-11-18T08:37:48.556Z,9.25
2022-11-18T08:40:14.926Z,9.87
2022-11-18T08:42:40.955Z,9.90
2022-11-18T08:45:10.006Z,9.97
2022-11-18T08:47:36.452Z,9.80
2022-11-18T08:50:04.682Z,9.80
2022-11-18T08:52:30.775Z,9.62
2022-11-18T08:54:56.925Z,10.01
2022-11-18T08:57:23.466Z,10.01
2022-11-18T08:59:49.589Z,9.64
2022-11-18T09:02:17.744Z,9.97
2022-11-18T09:04:43.768Z,10.02
2022-11-18T09:07:09.864Z,9.88
2022-11-18T09:09:36.171Z,9.24
2022-11-18T09:12:02.266Z,9.71
2022-11-18T09:17:14.548Z,9.67
2022-11-18T09:19:48.679Z,9.64
2022-11-18T09:22:14.809Z,9.70
2022-11-18T09:24:40.931Z,9.88
2022-11-18T09:27:12.240Z,8.60
2022-11-18T09:29:39.864Z,9.67
2022-11-18T09:32:05.882Z,9.76
2022-11-18T09:34:33.613Z,9.72
2022-11-18T09:36:59.686Z,9.82
2022-11-18T09:39:25.930Z,9.52
2022-11-18T09:42:05.475Z,9.60
2022-11-18T09:44:44.581Z,9.60
2022-11-18T09:47:29.202Z,9.80
2022-11-18T09:49:57.132Z,9.34
2022-11-18T09:52:23.122Z,9.20
2022-11-18T09:54:49.260Z,9.06
2022-11-18T09:57:18.357Z,8.91
2022-11-18T09:59:44.783Z,8.87
2022-11-18T10:02:32.084Z,9.29
2022-11-18T10:05:13.658Z,9.34
2022-11-18T10:08:00.655Z,9.63
2022-11-18T10:11:16.133Z,9.23
2022-11-18T10:14:00.783Z,9.14
2022-11-18T10:17:05.320Z,9.05
2022-11-18T10:20:24.569Z,9.58
2022-11-18T10:23:21.409Z,9.50
2022-11-18T10:25:47.462Z,8.70
2022-11-18T10:28:25.559Z,9.37
2022-11-18T10:30:52.110Z,9.73
2022-11-18T10:33:25.642Z,9.41
2022-11-18T10:36:17.547Z,9.38
2022-11-18T10:38:49.501Z,9.32
2022-11-18T10:41:17.883Z,9.62
2022-11-18T10:43:52.567Z,9.55
2022-11-18T10:46:18.625Z,9.85
2022-11-18T10:48:44.849Z,9.97
2022-11-18T10:51:31.128Z,10.06
2022-11-18T10:54:15.526Z,9.75
2022-11-18T10:56:58.065Z,9.66
2022-11-18T10:59:39.855Z,9.84
2022-11-18T11:02:31.666Z,9.87
2022-11-18T11:04:59.149Z,9.43
2022-11-18T11:07:34.311Z,9.52
2022-11-18T11:10:12.693Z,9.32
2022-11-18T11:12:46.466Z,9.09
2022-11-18T11:15:24.542Z,9.31
2022-11-18T11:18:17.181Z,9.29
2022-11-18T11:20:43.695Z,9.54
2022-11-18T11:23:11.425Z,9.12
2022-11-18T11:28:55.010Z,9.27
2022-11-18T11:31:28.744Z,9.43
2022-11-18T11:34:46.651Z,9.66
2022-11-18T11:37:28.111Z,9.83
2022-11-18T11:40:01.323Z,9.28
2022-11-18T11:42:44.789Z,9.21
2022-11-18T11:45:46.606Z,9.42
2022-11-18T11:48:27.069Z,9.03
2022-11-18T11:51:04.348Z,9.03
2022-11-18T11:53:43.537Z,9.25
2022-11-18T11:56:28.288Z,9.19
2022-11-18T11:59:05.612Z,9.39
2022-11-18T12:01:53.104Z,9.11
2022-11-18T12:04:31.399Z,9.02
2022-11-18T12:06:58.436Z,9.15
2022-11-18T12:09:33.608Z,9.18
2022-11-18T12:12:35.509Z,8.67
2022-11-18T12:15:07.724Z,8.47
2022-11-18T12:17:40.251Z,9.03
2022-11-18T12:20:34.435Z,8.99
2022-11-18T12:23:18.884Z,9.08
2022-11-18T12:25:47.962Z,8.56
2022-11-18T12:28:29.082Z,8.36
2022-11-18T12:31:17.045Z,8.53
2022-11-18T12:33:54.149Z,8.92
2022-11-18T12:36:26.266Z,8.94
2022-11-18T12:38:53.719Z,8.43
2022-11-18T12:41:57.355Z,8.47
2022-11-18T12:44:25.824Z,8.95
2022-11-18T12:47:01.647Z,8.68
2022-11-18T12:49:27.656Z,8.36
2022-11-18T12:52:01.459Z,7.43
2022-11-18T12:54:27.476Z,8.75
2022-11-18T12:56:55.412Z,8.55
2022-11-18T12:59:36.390Z,8.98
2022-11-18T13:02:20.636Z,8.39
2022-11-18T13:05:10.336Z,8.38
2022-11-18T13:08:01.585Z,8.13
2022-11-18T13:10:31.257Z,8.79
2022-11-18T13:12:58.522Z,8.52
2022-11-18T13:15:42.850Z,8.50
2022-11-18T13:18:15.144Z,6.39
2022-11-18T13:20:42.384Z,8.04
2022-11-18T13:23:26.840Z,7.92
2022-11-18T13:25:53.893Z,8.26
2022-11-18T13:28:35.061Z,8.30
2022-11-18T13:31:34.489Z,8.05
2022-11-18T13:34:02.391Z,8.32
2022-11-18T13:36:30.394Z,7.93
2022-11-18T13:39:06.408Z,7.87
2022-11-18T13:41:34.572Z,8.26
2022-11-18T13:44:31.715Z,7.52
2022-11-18T13:47:19.027Z,8.22
2022-11-18T13:49:59.660Z,7.90
2022-11-18T13:52:57.667Z,7.64
2022-11-18T13:55:27.105Z,7.99
2022-11-18T13:58:19.726Z,7.69
2022-11-18T14:01:00.098Z,7.51
2022-11-18T14:03:40.302Z,6.04
2022-11-18T14:06:07.375Z,7.55
2022-11-18T14:08:35.304Z,8.06
2022-11-18T14:11:02.833Z,7.66
2022-11-18T14:13:34.705Z,5.87
2022-11-18T14:16:20.698Z,7.87
2022-11-18T14:18:48.841Z,7.61
2022-11-18T14:21:26.589Z,7.30
2022-11-18T14:23:52.652Z,7.76
2022-11-18T14:26:33.310Z,7.06
2022-11-18T14:29:02.783Z,7.53
2022-11-18T14:31:30.938Z,7.22
2022-11-18T14:34:15.566Z,7.08
2022-11-18T14:36:41.660Z,6.91
2022-11-18T14:39:27.403Z,6.76
2022-11-18T14:41:54.572Z,7.13
2022-11-18T14:44:22.278Z,6.66
2022-11-18T14:46:54.610Z,6.91
2022-11-18T14:49:22.977Z,6.66
2022-11-18T14:51:50.228Z,7.13
2022-11-18T14:54:25.187Z,6.98
2022-11-18T14:56:55.171Z,7.41
2022-11-18T14:59:21.664Z,6.84
2022-11-18T15:01:47.866Z,7.26
2022-11-18T15:04:18.761Z,6.84
2022-11-18T15:06:45.082Z,7.21
2022-11-18T15:09:11.822Z,6.46
2022-11-18T15:11:37.952Z,6.93
2022-11-18T15:14:04.015Z,7.14
2022-11-18T15:16:33.285Z,6.26
2022-11-18T15:19:01.086Z,6.45
2022-11-18T15:21:28.037Z,6.76
2022-11-18T15:23:54.163Z,7.17
2022-11-18T15:26:20.204Z,6.81
2022-11-18T15:28:51.415Z,6.43
2022-11-18T15:31:18.440Z,6.38
2022-11-18T15:33:45.496Z,6.58
2022-11-18T15:36:23.021Z,6.10
2022-11-18T15:38:50.199Z,6.49
2022-11-18T15:41:26.414Z,5.74
2022-11-18T15:43:54.079Z,6.57
2022-11-18T15:46:21.662Z,6.47
2022-11-18T15:48:50.743Z,5.65
2022-11-18T15:51:16.962Z,5.93
2022-11-18T15:53:43.082Z,6.48
2022-11-18T15:56:18.151Z,6.65
2022-11-18T15:58:45.297Z,5.36
2022-11-18T16:01:11.522Z,4.90
2022-11-18T16:03:38.203Z,6.12
2022-11-18T16:06:04.577Z,6.12
2022-11-18T16:08:30.719Z,5.70
2022-11-18T16:11:16.420Z,6.00
2022-11-18T16:13:42.967Z,6.43
2022-11-18T16:16:22.741Z,5.47
2022-11-18T16:18:49.175Z,6.24
2022-11-18T16:21:15.703Z,4.12
2022-11-18T16:23:42.101Z,6.22
2022-11-18T16:26:08.200Z,5.83
2022-11-18T16:28:34.424Z,6.59
2022-11-18T16:31:19.140Z,4.69
2022-11-18T16:33:45.358Z,3.92
2022-11-18T16:36:12.036Z,5.66
2022-11-18T16:38:38.557Z,5.13
2022-11-18T16:41:25.089Z,5.48
2022-11-18T16:43:51.289Z,4.76
2022-11-18T16:46:17.922Z,5.76
2022-11-18T16:48:44.157Z,5.23
2022-11-18T16:51:19.360Z,6.32
2022-11-18T16:53:52.983Z,5.44
2022-11-18T16:56:30.818Z,5.67
2022-11-18T16:59:12.437Z,4.77
2022-11-18T17:01:42.939Z,4.45
2022-11-18T17:04:11.744Z,5.08
2022-11-18T17:06:40.157Z,5.02
2022-11-18T17:09:07.916Z,4.86
2022-11-18T17:11:35.836Z,2.83
2022-11-18T17:14:02.713Z,4.64
2022-11-18T17:16:29.982Z,4.65
2022-11-18T17:18:58.781Z,3.80
2022-11-18T17:21:31.650Z,4.26
2022-11-18T17:23:59.719Z,3.38
2022-11-18T17:26:27.667Z,4.89
2022-11-18T17:28:57.284Z,4.52
2022-11-18T17:31:24.215Z,4.45
2022-11-18T17:33:52.089Z,4.34
2022-11-18T17:36:20.815Z,2.37
2022-11-18T17:38:49.177Z,4.75
2022-11-18T17:41:37.394Z,4.15
2022-11-18T17:44:05.390Z,2.53
2022-11-18T17:46:37.550Z,4.98
2022-11-18T17:49:06.291Z,5.10
2022-11-18T17:51:32.635Z,4.91
2022-11-18T17:53:58.856Z,2.41
2022-11-18T17:56:25.194Z,4.32
2022-11-18T17:58:52.500Z,3.41
2022-11-18T18:01:23.265Z,5.02
2022-11-18T18:03:49.707Z,3.64
2022-11-18T18:06:17.939Z,3.46
2022-11-18T18:08:44.518Z,2.22
2022-11-18T18:11:18.449Z,2.10
2022-11-18T18:14:03.869Z,4.53
2022-11-18T18:16:31.296Z,4.81
2022-11-18T18:18:58.423Z,4.05
2022-11-18T18:21:24.951Z,4.37
2022-11-18T18:23:51.100Z,3.84
2022-11-18T18:26:17.529Z,3.74
2022-11-18T18:28:44.316Z,4.31
2022-11-18T18:31:12.620Z,3.98
2022-11-18T18:33:44.932Z,3.65
2022-11-18T18:36:15.377Z,4.34
2022-11-18T18:38:42.071Z,4.01
2022-11-18T18:41:10.192Z,4.44
2022-11-18T18:43:36.351Z,4.10
2022-11-18T18:46:23.033Z,4.49
2022-11-18T18:48:49.148Z,3.82
2022-11-18T18:51:16.421Z,3.80
2022-11-18T18:53:42.632Z,4.32
2022-11-18T18:56:09.425Z,3.27
2022-11-18T18:58:35.754Z,2.49
2022-11-18T19:01:08.639Z,3.67
2022-11-18T19:03:35.341Z,2.62
2022-11-18T19:09:12.424Z,3.73
2022-11-18T19:11:57.508Z,4.06
2022-11-18T19:14:24.330Z,3.17
2022-11-18T19:16:50.633Z,4.49
2022-11-18T19:19:40.638Z,3.83
2022-11-18T19:22:07.085Z,3.30
2022-11-18T19:24:48.612Z,3.04
2022-11-18T19:27:15.626Z,2.64
2022-11-18T19:29:41.670Z,2.80
2022-11-18T19:32:07.754Z,3.48
2022-11-18T19:34:33.799Z,3.30
2022-11-18T19:37:00.808Z,2.97
2022-11-18T19:39:26.980Z,2.82
2022-11-18T19:41:53.116Z,2.88
2022-11-18T19:44:19.160Z,2.82
2022-11-18T19:46:45.223Z,3.00
2022-11-18T19:49:11.295Z,3.41
2022-11-18T19:51:37.362Z,1.75
2022-11-18T19:54:04.195Z,2.53
2022-11-18T19:56:30.268Z,3.09
2022-11-18T19:58:56.347Z,2.35
2022-11-18T20:01:27.750Z,2.88
2022-11-18T20:03:56.971Z,3.33
2022-11-18T20:06:24.853Z,3.69
2022-11-18T20:08:51.074Z,3.22
2022-11-18T20:11:18.490Z,3.18
2022-11-18T20:13:45.326Z,3.30
2022-11-18T20:16:18.080Z,3.99
2022-11-18T20:18:46.850Z,4.03
2022-11-18T20:21:19.067Z,3.96
2022-11-18T20:23:46.468Z,4.13
2022-11-18T20:26:13.898Z,3.48
2022-11-18T20:28:41.665Z,3.69
2022-11-18T20:31:09.668Z,3.85
2022-11-18T20:33:37.324Z,4.00
2022-11-18T20:36:07.730Z,3.22
2022-11-18T20:38:34.122Z,4.25
2022-11-18T20:41:05.185Z,3.86
2022-11-18T20:43:34.525Z,4.21
2022-11-18T20:46:01.601Z,3.84
2022-11-18T20:48:28.469Z,3.87
2022-11-18T20:50:54.542Z,3.38
2022-11-18T20:53:24.617Z,3.57
2022-11-18T20:55:50.896Z,3.57
2022-11-18T20:58:17.948Z,3.57
2022-11-18T21:00:45.601Z,2.82
2022-11-18T21:03:11.832Z,2.67
2022-11-18T21:05:41.751Z,3.68
2022-11-18T21:08:09.018Z,2.82
2022-11-18T21:10:35.913Z,3.22
2022-11-18T21:13:21.218Z,2.33
2022-11-18T21:15:47.508Z,2.61
2022-11-18T21:18:13.583Z,3.26
2022-11-18T21:20:58.406Z,2.28
2022-11-18T21:23:24.498Z,1.61
2022-11-18T21:25:50.581Z,2.24
2022-11-18T21:28:16.635Z,2.26
2022-11-18T21:30:42.717Z,2.40
2022-11-18T21:33:08.889Z,2.14
2022-11-18T21:35:34.945Z,-1.82
2022-11-18T21:38:04.320Z,2.60
2022-11-18T21:40:30.580Z,2.20
2022-11-18T21:42:56.621Z,2.19
2022-11-18T21:45:22.673Z,2.98
2022-11-18T21:47:48.772Z,3.15
2022-11-18T21:50:15.160Z,2.22
2022-11-18T21:52:41.217Z,2.71
2022-11-18T21:55:07.644Z,2.68
2022-11-18T21:57:33.759Z,3.13
2022-11-18T21:59:59.937Z,3.07
2022-11-18T22:02:26.102Z,2.55
2022-11-18T22:04:52.170Z,1.96
2022-11-18T22:07:19.515Z,3.07
2022-11-18T22:09:45.725Z,1.77
2022-11-18T22:12:11.807Z,3.25
2022-11-18T22:14:37.859Z,3.13
2022-11-18T22:17:04.184Z,1.88
2022-11-18T22:19:30.455Z,2.83
2022-11-18T22:21:56.519Z,2.69
2022-11-18T22:24:22.620Z,2.14
2022-11-18T22:26:48.703Z,2.83
2022-11-18T22:29:14.791Z,2.88
2022-11-18T22:31:40.882Z,2.54
2022-11-18T22:34:08.714Z,3.10
2022-11-18T22:36:34.921Z,3.09
2022-11-18T22:39:01.171Z,3.25
2022-11-18T22:41:46.441Z,2.77
2022-11-18T22:44:14.347Z,3.13
2022-11-18T22:46:42.732Z,3.01
2022-11-18T22:49:09.777Z,3.26
2022-11-18T22:51:37.062Z,3.35
2022-11-18T22:54:36.618Z,2.98
2022-11-18T22:56:50.050Z,2.30
2022-11-18T22:59:16.542Z,2.78
2022-11-18T23:01:43.340Z,3.02
2022-11-18T23:04:09.416Z,2.73
2022-11-18T23:06:35.526Z,2.01
2022-11-18T23:09:01.784Z,2.94
2022-11-18T23:11:46.433Z,1.67
2022-11-18T23:14:12.610Z,3.11
2022-11-18T23:16:40.927Z,3.09
2022-11-18T23:19:12.376Z,1.91
2022-11-18T23:21:38.666Z,2.08
2022-11-18T23:24:05.229Z,2.89
2022-11-18T23:26:31.524Z,1.67
2022-11-18T23:28:57.675Z,2.19
2022-11-18T23:31:25.842Z,1.94
2022-11-18T23:33:53.647Z,2.20
2022-11-18T23:36:19.975Z,2.16
2022-11-18T23:38:46.479Z,2.39
2022-11-18T23:41:14.318Z,3.03
2022-11-18T23:43:40.616Z,2.79
2022-11-18T23:46:07.760Z,2.94
2022-11-18T23:48:36.012Z,2.36
2022-11-18T23:51:08.683Z,2.17
2022-11-18T23:53:35.881Z,2.96
2022-11-18T23:56:04.803Z,2.13
2022-11-18T23:58:30.933Z,2.28
